createdAt,value
2022-12-27T00:01:31.504Z,4.40
2022-12-27T00:03:58.059Z,4.25
2022-12-27T00:06:26.188Z,4.29
2022-12-27T00:08:53.071Z,4.25
2022-12-27T00:11:22.892Z,4.28
2022-12-27T00:13:49.928Z,4.20
2022-12-27T00:16:18.942Z,4.21
2022-12-27T00:18:46.493Z,4.28
2022-12-27T00:21:13.928Z,4.21
2022-12-27T00:23:43.459Z,4.26
2022-12-27T00:26:16.108Z,4.34
2022-12-27T00:28:43.141Z,4.33
2022-12-27T00:31:09.937Z,4.34
2022-12-27T00:33:38.678Z,4.32
2022-12-27T00:36:07.998Z,4.30
2022-12-27T00:38:35.557Z,4.27
2022-12-27T00:41:02.951Z,4.31
2022-12-27T00:43:29.633Z,4.33
2022-12-27T00:45:56.030Z,4.31
2022-12-27T00:48:22.825Z,4.26
2022-12-27T00:50:49.567Z,4.21
2022-12-27T00:53:16.029Z,4.27
2022-12-27T00:55:43.665Z,4.17
2022-12-27T00:58:10.247Z,4.23
2022-12-27T01:00:37.202Z,4.25
2022-12-27T01:03:03.916Z,4.22
2022-12-27T01:05:30.346Z,4.23
2022-12-27T01:07:56.734Z,4.21
2022-12-27T01:10:23.234Z,4.14
2022-12-27T01:12:49.660Z,4.22
2022-12-27T01:15:16.082Z,4.18
2022-12-27T01:17:42.480Z,4.15
2022-12-27T01:20:09.275Z,4.17
2022-12-27T01:22:35.722Z,4.16
2022-12-27T01:25:02.123Z,4.14
2022-12-27T01:27:28.621Z,4.07
2022-12-27T01:29:55.053Z,4.07
2022-12-27T01:32:21.652Z,4.00
2022-12-27T01:34:48.065Z,3.75
2022-12-27T01:37:14.404Z,3.58
2022-12-27T01:39:40.773Z,3.51
2022-12-27T01:42:34.895Z,3.40
2022-12-27T01:45:02.581Z,3.32
2022-12-27T01:47:45.707Z,3.49
2022-12-27T01:50:31.127Z,3.62
2022-12-27T01:53:19.398Z,3.40
2022-12-27T01:55:50.762Z,3.32
2022-12-27T01:58:42.504Z,3.26
2022-12-27T02:01:20.515Z,3.30
2022-12-27T02:03:53.798Z,3.43
2022-12-27T02:06:22.097Z,3.50
2022-12-27T02:09:05.561Z,3.67
2022-12-27T02:11:53.016Z,3.71
2022-12-27T02:14:33.256Z,3.74
2022-12-27T02:17:05.898Z,3.83
2022-12-27T02:20:06.799Z,3.84
2022-12-27T02:23:13.334Z,3.84
2022-12-27T02:26:05.573Z,3.82
2022-12-27T02:28:57.033Z,3.84
2022-12-27T02:31:41.273Z,3.80
2022-12-27T02:34:48.005Z,3.75
2022-12-27T02:37:14.782Z,3.73
2022-12-27T02:39:46.021Z,3.80
2022-12-27T02:42:34.216Z,3.76
2022-12-27T02:45:23.584Z,3.77
2022-12-27T02:48:08.531Z,3.73
2022-12-27T02:51:33.728Z,3.64
2022-12-27T02:54:35.541Z,3.63
2022-12-27T02:57:32.861Z,3.51
2022-12-27T03:00:23.884Z,3.45
2022-12-27T03:03:21.148Z,3.53
2022-12-27T03:06:27.807Z,3.42
2022-12-27T03:09:05.242Z,3.38
2022-12-27T03:12:01.704Z,3.18
2022-12-27T03:15:04.187Z,3.25
2022-12-27T03:17:48.010Z,3.17
2022-12-27T03:20:36.723Z,3.22
2022-12-27T03:23:22.900Z,3.11
2022-12-27T03:25:51.667Z,3.08
2022-12-27T03:28:42.644Z,3.18
2022-12-27T03:31:33.322Z,3.24
2022-12-27T03:34:26.488Z,3.14
2022-12-27T03:37:15.189Z,3.19
2022-12-27T03:40:04.085Z,3.18
2022-12-27T03:42:52.886Z,3.18
2022-12-27T03:45:21.659Z,3.14
2022-12-27T03:48:03.077Z,3.07
2022-12-27T03:50:54.598Z,3.07
2022-12-27T03:53:32.541Z,3.09
2022-12-27T03:55:59.255Z,2.98
2022-12-27T03:58:25.761Z,2.95
2022-12-27T04:00:52.206Z,2.94
2022-12-27T04:03:18.606Z,2.91
2022-12-27T04:05:44.981Z,2.85
2022-12-27T04:08:30.030Z,2.78
2022-12-27T04:11:15.031Z,2.88
2022-12-27T04:13:59.976Z,2.89
2022-12-27T04:16:44.875Z,2.89
2022-12-27T04:19:29.950Z,2.91
2022-12-27T04:22:14.732Z,2.89
2022-12-27T04:24:59.706Z,2.87
2022-12-27T04:27:44.957Z,2.88
2022-12-27T04:30:30.248Z,2.83
2022-12-27T04:33:15.217Z,2.75
2022-12-27T04:35:41.573Z,2.79
2022-12-27T04:38:08.068Z,2.79
2022-12-27T04:40:53.065Z,2.74
2022-12-27T04:43:37.966Z,2.77
2022-12-27T04:46:23.258Z,2.73
2022-12-27T04:49:08.185Z,2.77
2022-12-27T04:51:57.574Z,2.77
2022-12-27T04:54:42.901Z,2.83
2022-12-27T04:57:09.277Z,2.87
2022-12-27T04:59:54.321Z,2.83
2022-12-27T05:02:20.998Z,2.88
2022-12-27T05:04:48.427Z,2.89
2022-12-27T05:07:34.453Z,2.92
2022-12-27T05:10:21.795Z,2.95
2022-12-27T05:13:06.582Z,3.00
2022-12-27T05:15:32.981Z,3.08
2022-12-27T05:17:59.354Z,3.16
2022-12-27T05:20:25.710Z,3.02
2022-12-27T05:23:10.794Z,2.96
2022-12-27T05:25:41.858Z,2.85
2022-12-27T05:28:10.841Z,3.01
2022-12-27T05:30:39.231Z,3.10
2022-12-27T05:33:06.453Z,3.30
2022-12-27T05:35:34.417Z,3.26
2022-12-27T05:38:01.891Z,3.32
2022-12-27T05:40:28.406Z,3.37
2022-12-27T05:42:54.796Z,3.47
2022-12-27T05:45:21.375Z,3.53
2022-12-27T05:47:47.838Z,3.56
2022-12-27T05:50:14.267Z,3.52
2022-12-27T05:52:41.427Z,3.45
2022-12-27T05:55:08.562Z,3.48
2022-12-27T05:57:35.139Z,3.57
2022-12-27T06:00:01.914Z,3.50
2022-12-27T06:02:28.467Z,3.42
2022-12-27T06:04:55.032Z,3.45
2022-12-27T06:07:21.461Z,3.42
2022-12-27T06:09:47.915Z,3.31
2022-12-27T06:12:14.467Z,3.40
2022-12-27T06:14:41.501Z,3.37
2022-12-27T06:17:07.963Z,3.51
2022-12-27T06:19:34.509Z,3.53
2022-12-27T06:22:00.976Z,3.56
2022-12-27T06:24:27.695Z,3.52
2022-12-27T06:26:54.104Z,3.49
2022-12-27T06:29:20.445Z,3.56
2022-12-27T06:31:47.028Z,3.54
2022-12-27T06:34:13.505Z,3.63
2022-12-27T06:36:39.994Z,3.57
2022-12-27T06:39:06.467Z,3.57
2022-12-27T06:41:32.841Z,3.49
2022-12-27T06:43:59.302Z,3.44
2022-12-27T06:46:25.900Z,3.43
2022-12-27T06:48:52.747Z,3.38
2022-12-27T06:51:20.784Z,3.37
2022-12-27T06:53:47.986Z,3.41
2022-12-27T06:56:19.490Z,3.46
2022-12-27T06:58:48.111Z,3.37
2022-12-27T07:01:16.114Z,3.36
2022-12-27T07:03:42.981Z,3.32
2022-12-27T07:06:13.907Z,3.29
2022-12-27T07:08:40.459Z,3.25
2022-12-27T07:11:10.571Z,3.21
2022-12-27T07:13:42.147Z,3.14
2022-12-27T07:16:10.675Z,3.17
2022-12-27T07:18:37.594Z,3.13
2022-12-27T07:21:06.474Z,3.01
2022-12-27T07:23:33.541Z,3.10
2022-12-27T07:26:11.244Z,3.17
2022-12-27T07:28:38.432Z,3.09
2022-12-27T07:31:08.404Z,3.16
2022-12-27T07:33:35.740Z,3.15
2022-12-27T07:36:03.218Z,3.15
2022-12-27T07:38:29.762Z,3.09
2022-12-27T07:41:00.131Z,3.06
2022-12-27T07:43:29.590Z,3.06
2022-12-27T07:45:56.025Z,3.05
2022-12-27T07:48:22.494Z,3.09
2022-12-27T07:50:55.873Z,3.15
2022-12-27T07:53:22.569Z,3.12
2022-12-27T07:55:50.935Z,3.13
2022-12-27T07:58:18.723Z,3.18
2022-12-27T08:00:46.682Z,3.12
2022-12-27T08:03:13.073Z,3.19
2022-12-27T08:05:45.623Z,3.26
2022-12-27T08:08:15.088Z,3.24
2022-12-27T08:10:41.475Z,3.28
2022-12-27T08:13:07.835Z,3.29
2022-12-27T08:15:34.195Z,3.27
2022-12-27T08:18:00.568Z,3.34
2022-12-27T08:20:27.626Z,3.37
2022-12-27T08:22:53.970Z,3.31
2022-12-27T08:25:20.374Z,3.32
2022-12-27T08:27:46.703Z,3.39
2022-12-27T08:30:13.637Z,3.41
2022-12-27T08:32:40.056Z,3.33
2022-12-27T08:35:41.774Z,3.42
2022-12-27T08:37:54.110Z,3.51
2022-12-27T08:40:20.533Z,3.51
2022-12-27T08:42:47.174Z,3.53
2022-12-27T08:45:13.967Z,3.44
2022-12-27T08:47:40.439Z,3.51
2022-12-27T08:50:07.511Z,3.59
2022-12-27T08:52:34.117Z,3.63
2022-12-27T08:55:00.768Z,3.72
2022-12-27T08:57:27.092Z,3.82
2022-12-27T08:59:53.591Z,3.94
2022-12-27T09:02:20.139Z,4.03
2022-12-27T09:04:47.195Z,4.15
2022-12-27T09:07:13.587Z,4.29
2022-12-27T09:09:40.365Z,4.43
2022-12-27T09:12:09.229Z,4.53
2022-12-27T09:14:36.009Z,4.62
2022-12-27T09:17:02.389Z,4.79
2022-12-27T09:19:28.827Z,4.93
2022-12-27T09:21:55.234Z,5.07
2022-12-27T09:24:21.546Z,5.11
2022-12-27T09:26:48.040Z,5.16
2022-12-27T09:29:14.444Z,5.11
2022-12-27T09:31:40.968Z,5.10
2022-12-27T09:34:07.400Z,5.09
2022-12-27T09:36:33.806Z,5.11
2022-12-27T09:39:00.306Z,5.12
2022-12-27T09:42:47.663Z,5.27
2022-12-27T09:44:54.643Z,5.49
2022-12-27T09:47:34.527Z,5.64
2022-12-27T09:50:11.671Z,5.74
2022-12-27T09:52:46.359Z,5.80
2022-12-27T09:55:20.958Z,5.97
2022-12-27T09:57:48.275Z,5.99
2022-12-27T10:00:30.187Z,5.91
2022-12-27T10:03:05.151Z,5.95
2022-12-27T10:05:35.279Z,6.04
2022-12-27T10:08:19.421Z,6.24
2022-12-27T10:10:58.019Z,6.27
2022-12-27T10:13:33.555Z,6.25
2022-12-27T10:16:04.768Z,6.42
2022-12-27T10:18:49.945Z,6.44
2022-12-27T10:21:25.356Z,6.58
2022-12-27T10:23:54.871Z,6.75
2022-12-27T10:26:21.955Z,6.90
2022-12-27T10:29:22.134Z,7.07
2022-12-27T10:31:48.752Z,7.23
2022-12-27T10:34:18.029Z,7.40
2022-12-27T10:36:45.176Z,7.46
2022-12-27T10:39:25.652Z,7.67
2022-12-27T10:42:25.631Z,7.74
2022-12-27T10:44:51.944Z,7.71
2022-12-27T10:47:18.768Z,7.80
2022-12-27T10:50:03.321Z,7.87
2022-12-27T10:52:34.223Z,7.96
2022-12-27T10:55:00.624Z,8.00
2022-12-27T10:57:28.637Z,8.00
2022-12-27T11:00:13.277Z,8.19
2022-12-27T11:02:54.773Z,8.34
2022-12-27T11:05:24.681Z,8.49
2022-12-27T11:07:51.554Z,8.51
2022-12-27T11:10:23.824Z,8.51
2022-12-27T11:13:01.708Z,8.72
2022-12-27T11:15:30.524Z,8.78
2022-12-27T11:18:04.649Z,8.83
2022-12-27T11:20:37.507Z,8.82
2022-12-27T11:23:17.204Z,8.83
2022-12-27T11:26:01.593Z,8.84
2022-12-27T11:28:38.477Z,8.80
2022-12-27T11:31:16.815Z,8.77
2022-12-27T11:33:52.891Z,8.71
2022-12-27T11:36:29.366Z,8.69
2022-12-27T11:38:56.436Z,8.65
2022-12-27T11:41:36.231Z,8.66
2022-12-27T11:44:20.615Z,8.69
2022-12-27T11:46:59.359Z,8.71
2022-12-27T11:49:35.913Z,8.74
2022-12-27T11:52:26.556Z,8.79
2022-12-27T11:55:20.866Z,8.83
2022-12-27T11:58:17.938Z,8.85
2022-12-27T12:01:03.604Z,8.87
2022-12-27T12:04:03.525Z,8.90
2022-12-27T12:06:54.755Z,8.91
2022-12-27T12:09:28.263Z,8.88
2022-12-27T12:12:06.957Z,8.87
2022-12-27T12:15:20.856Z,8.94
2022-12-27T12:18:05.520Z,9.08
2022-12-27T12:21:03.224Z,9.23
2022-12-27T12:24:01.153Z,9.25
2022-12-27T12:26:43.736Z,9.20
2022-12-27T12:29:26.119Z,9.19
2022-12-27T12:32:09.309Z,9.22
2022-12-27T12:35:17.252Z,9.17
2022-12-27T12:37:59.790Z,9.10
2022-12-27T12:40:48.227Z,9.04
2022-12-27T12:43:43.749Z,9.08
2022-12-27T12:46:26.319Z,9.05
2022-12-27T12:49:30.475Z,9.02
2022-12-27T12:52:18.573Z,9.06
2022-12-27T12:55:15.634Z,9.11
2022-12-27T12:58:03.629Z,9.05
2022-12-27T13:00:42.495Z,8.96
2022-12-27T13:03:21.366Z,9.01
2022-12-27T13:05:57.546Z,8.98
2022-12-27T13:08:56.001Z,8.99
2022-12-27T13:11:25.784Z,8.99
2022-12-27T13:14:19.821Z,9.01
2022-12-27T13:16:55.471Z,8.99
2022-12-27T13:19:43.219Z,9.00
2022-12-27T13:22:40.233Z,9.08
2022-12-27T13:25:33.630Z,9.08
2022-12-27T13:28:28.000Z,9.10
2022-12-27T13:31:21.257Z,9.14
2022-12-27T13:34:05.969Z,9.18
2022-12-27T13:37:04.813Z,9.17
2022-12-27T13:39:34.228Z,9.18
2022-12-27T13:42:25.637Z,9.20
2022-12-27T13:45:24.497Z,9.22
2022-12-27T13:48:05.719Z,9.18
2022-12-27T13:50:55.133Z,9.27
2022-12-27T13:53:39.598Z,9.32
2022-12-27T13:56:52.732Z,9.31
2022-12-27T13:59:22.990Z,9.32
2022-12-27T14:02:17.127Z,9.30
2022-12-27T14:04:59.006Z,9.32
2022-12-27T14:07:25.832Z,9.31
2022-12-27T14:10:11.499Z,9.37
2022-12-27T14:12:53.433Z,9.37
2022-12-27T14:15:24.314Z,9.38
2022-12-27T14:18:01.198Z,9.32
2022-12-27T14:20:54.615Z,9.37
2022-12-27T14:23:37.341Z,9.38
2022-12-27T14:26:40.982Z,9.40
2022-12-27T14:29:13.391Z,9.38
2022-12-27T14:32:17.739Z,9.32
2022-12-27T14:35:02.752Z,9.29
2022-12-27T14:38:03.455Z,9.28
2022-12-27T14:41:17.747Z,9.29
2022-12-27T14:43:50.178Z,9.30
2022-12-27T14:46:35.286Z,9.26
2022-12-27T14:49:41.465Z,9.20
2022-12-27T14:52:22.197Z,9.21
2022-12-27T14:55:22.567Z,9.21
2022-12-27T14:58:06.743Z,9.22
2022-12-27T15:00:58.729Z,9.22
2022-12-27T15:03:47.357Z,9.18
2022-12-27T15:06:42.577Z,9.13
2022-12-27T15:09:19.849Z,9.14
2022-12-27T15:11:57.862Z,9.13
2022-12-27T15:14:42.951Z,9.07
2022-12-27T15:17:15.617Z,9.10
2022-12-27T15:19:48.122Z,9.06
2022-12-27T15:22:46.158Z,9.01
2022-12-27T15:25:24.399Z,8.90
2022-12-27T15:28:00.238Z,8.87
2022-12-27T15:30:55.057Z,8.85
2022-12-27T15:33:46.391Z,8.84
2022-12-27T15:36:17.996Z,8.79
2022-12-27T15:38:53.988Z,8.71
2022-12-27T15:41:47.466Z,8.73
2022-12-27T15:44:42.849Z,8.56
2022-12-27T15:47:38.572Z,8.57
2022-12-27T15:50:04.912Z,8.48
2022-12-27T15:52:34.241Z,8.43
2022-12-27T15:55:17.624Z,8.40
2022-12-27T15:57:44.050Z,8.40
2022-12-27T16:00:15.447Z,8.37
2022-12-27T16:02:48.130Z,8.33
2022-12-27T16:05:20.753Z,8.34
2022-12-27T16:07:47.687Z,8.33
2022-12-27T16:10:35.541Z,8.29
2022-12-27T16:13:05.055Z,8.28
2022-12-27T16:15:43.260Z,8.18
2022-12-27T16:18:31.233Z,8.13
2022-12-27T16:21:05.239Z,8.08
2022-12-27T16:23:46.851Z,8.05
2022-12-27T16:26:20.419Z,8.02
2022-12-27T16:28:57.605Z,8.01
2022-12-27T16:31:39.079Z,8.01
2022-12-27T16:34:29.026Z,7.94
2022-12-27T16:36:58.456Z,7.94
2022-12-27T16:39:46.192Z,7.95
2022-12-27T16:42:12.597Z,7.92
2022-12-27T16:44:53.574Z,7.91
2022-12-27T16:47:43.604Z,7.83
2022-12-27T16:50:22.032Z,7.80
2022-12-27T16:53:06.718Z,7.71
2022-12-27T16:55:54.836Z,7.77
2022-12-27T16:58:31.633Z,7.75
2022-12-27T17:01:00.257Z,7.71
2022-12-27T17:03:38.782Z,7.69
2022-12-27T17:06:34.462Z,7.61
2022-12-27T17:09:10.025Z,7.59
2022-12-27T17:11:41.217Z,7.52
2022-12-27T17:14:31.538Z,7.48
2022-12-27T17:17:13.895Z,7.42
2022-12-27T17:19:49.654Z,7.44
2022-12-27T17:22:17.839Z,7.42
2022-12-27T17:24:46.236Z,7.33
2022-12-27T17:27:24.585Z,7.26
2022-12-27T17:30:09.332Z,7.21
2022-12-27T17:32:38.484Z,7.22
2022-12-27T17:35:47.693Z,7.17
2022-12-27T17:38:41.067Z,7.17
2022-12-27T17:41:58.817Z,7.07
2022-12-27T17:44:40.518Z,6.91
2022-12-27T17:47:17.295Z,6.93
2022-12-27T17:49:43.942Z,6.92
2022-12-27T17:52:35.080Z,6.98
2022-12-27T17:55:36.082Z,6.95
2022-12-27T17:58:07.526Z,6.87
2022-12-27T18:00:38.192Z,6.84
2022-12-27T18:03:09.935Z,6.85
2022-12-27T18:05:41.615Z,6.77
2022-12-27T18:08:28.735Z,6.75
2022-12-27T18:10:56.862Z,6.65
2022-12-27T18:13:25.797Z,6.56
2022-12-27T18:15:52.992Z,6.55
2022-12-27T18:18:32.108Z,6.54
2022-12-27T18:21:04.168Z,6.54
2022-12-27T18:23:41.055Z,6.44
2022-12-27T18:26:15.607Z,6.40
2022-12-27T18:28:43.132Z,6.38
2022-12-27T18:31:25.212Z,6.41
2022-12-27T18:34:06.740Z,6.48
2022-12-27T18:36:49.600Z,6.44
2022-12-27T18:39:21.908Z,6.42
2022-12-27T18:41:50.867Z,6.34
2022-12-27T18:44:27.448Z,6.43
2022-12-27T18:46:57.563Z,6.32
2022-12-27T18:49:31.701Z,6.33
2022-12-27T18:51:58.628Z,6.25
2022-12-27T18:54:27.722Z,6.20
2022-12-27T18:56:56.203Z,6.13
2022-12-27T18:59:27.759Z,6.14
2022-12-27T19:01:59.510Z,6.15
2022-12-27T19:04:31.297Z,6.11
2022-12-27T19:07:00.574Z,6.04
2022-12-27T19:09:30.072Z,6.09
2022-12-27T19:12:03.146Z,6.00
2022-12-27T19:14:42.587Z,6.05
2022-12-27T19:17:22.804Z,6.08
2022-12-27T19:19:53.004Z,6.05
2022-12-27T19:22:36.499Z,6.06
2022-12-27T19:25:20.136Z,5.97
2022-12-27T19:28:02.779Z,5.99
2022-12-27T19:30:51.339Z,5.93
2022-12-27T19:33:17.700Z,5.91
2022-12-27T19:35:44.176Z,5.92
2022-12-27T19:38:21.159Z,5.83
2022-12-27T19:40:49.941Z,5.79
2022-12-27T19:43:17.190Z,5.76
2022-12-27T19:45:43.823Z,5.84
2022-12-27T19:48:11.126Z,5.85
2022-12-27T19:50:49.239Z,5.88
2022-12-27T19:53:19.356Z,5.92
2022-12-27T19:55:45.980Z,5.91
2022-12-27T19:58:21.661Z,5.88
2022-12-27T20:00:48.167Z,5.81
2022-12-27T20:03:15.354Z,5.86
2022-12-27T20:06:13.920Z,5.84
2022-12-27T20:08:36.494Z,5.77
2022-12-27T20:11:04.731Z,5.87
2022-12-27T20:13:31.603Z,5.85
2022-12-27T20:15:59.112Z,5.87
2022-12-27T20:18:25.793Z,5.84
2022-12-27T20:20:52.910Z,5.78
2022-12-27T20:23:20.391Z,5.77
2022-12-27T20:25:48.771Z,5.76
2022-12-27T20:28:17.081Z,5.74
2022-12-27T20:30:45.207Z,5.82
2022-12-27T20:33:11.606Z,5.88
2022-12-27T20:35:38.169Z,5.82
2022-12-27T20:38:05.165Z,5.79
2022-12-27T20:40:31.804Z,5.71
2022-12-27T20:42:58.303Z,5.71
2022-12-27T20:45:24.863Z,5.70
2022-12-27T20:47:51.201Z,5.80
2022-12-27T20:50:17.646Z,5.76
2022-12-27T20:52:44.134Z,5.71
2022-12-27T20:55:12.369Z,5.72
2022-12-27T20:57:39.506Z,5.73
2022-12-27T21:00:07.869Z,5.73
2022-12-27T21:02:34.890Z,5.76
2022-12-27T21:05:01.571Z,5.79
2022-12-27T21:07:27.995Z,5.73
2022-12-27T21:09:54.411Z,5.73
2022-12-27T21:12:20.865Z,5.82
2022-12-27T21:14:47.500Z,5.78
2022-12-27T21:17:13.869Z,5.80
2022-12-27T21:19:40.351Z,5.81
2022-12-27T21:22:06.846Z,5.78
2022-12-27T21:24:33.356Z,5.70
2022-12-27T21:26:59.798Z,5.60
2022-12-27T21:29:26.216Z,5.64
2022-12-27T21:31:53.369Z,5.69
2022-12-27T21:34:20.556Z,5.62
2022-12-27T21:36:50.834Z,5.66
2022-12-27T21:39:17.697Z,5.53
2022-12-27T21:41:44.073Z,5.56
2022-12-27T21:44:12.337Z,5.53
2022-12-27T21:46:41.511Z,5.49
2022-12-27T21:49:10.590Z,5.46
2022-12-27T21:51:38.409Z,5.48
2022-12-27T21:54:05.020Z,5.43
2022-12-27T21:56:31.733Z,5.30
2022-12-27T21:58:59.369Z,5.30
2022-12-27T22:01:28.780Z,5.25
2022-12-27T22:03:56.926Z,5.24
2022-12-27T22:06:29.012Z,5.33
2022-12-27T22:09:06.685Z,5.40
2022-12-27T22:11:34.467Z,5.43
2022-12-27T22:14:01.464Z,5.44
2022-12-27T22:16:30.999Z,5.55
2022-12-27T22:18:57.698Z,5.55
2022-12-27T22:21:35.251Z,5.49
2022-12-27T22:24:02.897Z,5.44
2022-12-27T22:26:32.867Z,5.44
2022-12-27T22:28:59.582Z,5.42
2022-12-27T22:31:30.673Z,5.45
2022-12-27T22:33:57.201Z,5.43
2022-12-27T22:36:25.314Z,5.49
2022-12-27T22:38:53.583Z,5.52
2022-12-27T22:41:28.994Z,5.45
2022-12-27T22:43:58.579Z,5.45
2022-12-27T22:46:26.733Z,5.40
2022-12-27T22:48:55.642Z,5.45
2022-12-27T22:51:27.068Z,5.53
2022-12-27T22:53:55.096Z,5.50
2022-12-27T22:56:24.408Z,5.56
2022-12-27T22:58:51.100Z,5.56
2022-12-27T23:01:19.108Z,5.64
2022-12-27T23:03:46.569Z,5.65
2022-12-27T23:06:13.158Z,5.73
2022-12-27T23:08:40.825Z,5.80
2022-12-27T23:11:11.307Z,5.87
2022-12-27T23:13:37.696Z,5.93
2022-12-27T23:16:05.065Z,5.92
2022-12-27T23:18:32.188Z,5.94
2022-12-27T23:21:21.381Z,6.00
2022-12-27T23:23:45.876Z,6.04
2022-12-27T23:26:17.368Z,6.07
2022-12-27T23:28:45.013Z,6.10
2022-12-27T23:31:13.909Z,6.15
2022-12-27T23:33:42.638Z,6.16
2022-12-27T23:36:10.386Z,6.15
2022-12-27T23:38:36.920Z,6.17
2022-12-27T23:41:05.814Z,6.18
2022-12-27T23:43:54.944Z,6.21
2022-12-27T23:46:28.920Z,6.27
2022-12-27T23:48:57.080Z,6.32
2022-12-27T23:51:24.034Z,6.35
2022-12-27T23:53:50.780Z,6.36
2022-12-27T23:56:23.328Z,6.34
2022-12-27T23:58:51.995Z,6.35
